Terminal Aerodrome Forecast
Issued by NWS

Home | Current Version | Previous Version | Graphics & Text | Print | Product List | Glossary On
Versions: 1 2 3 4 5 6 7 8 9 10 11 12 13 14 15 16 17 18
000
FTUS43 KLSX 281129
TAFSUS
TAF
KSUS 281129Z 2812/2912 VRB03KT 6SM BR SCT250
      TEMPO 2812/2813 2SM BR
     FM281400 12007KT P6SM SCT040 BKN250
     FM282100 12007KT P6SM VCTS SCT040CB
     FM290100 VRB03KT P6SM SCT250=

USA.gov is the U.S. government's official web portal to all federal, state and local government web resources and services.